Time;durP1;ratioP1;P1;durP2;ratioP2;P2;SDS_P1;SDS_P2;PMS_P1;PMS_P2;Temp;Humidity;BMP_temperature;BMP_pressure;BME280_temperature;BME280_humidity;BME280_pressure;Samples;Min_cycle;Max_cycle;Signal;HPM_P1;HPM_P2
2021/06/01 00:01:10;;;;;;;2.67;1.00;;;;;;;18.17;60.77;100040.12;1765122;80;21264;-49
2021/06/01 00:04:04;;;;;;;2.55;1.10;;;;;;;18.16;60.90;100040.20;1809956;77;22208;-48
2021/06/01 00:06:39;;;;;;;2.60;1.20;;;;;;;18.15;60.87;100045.14;1830892;77;22155;-47
2021/06/01 00:09:16;;;;;;;2.60;1.25;;;;;;;18.14;60.75;100044.26;1824189;77;22230;-48
2021/06/01 00:11:50;;;;;;;2.02;1.02;;;;;;;18.11;60.92;100040.41;1825059;77;22146;-48
2021/06/01 00:14:23;;;;;;;1.85;1.25;;;;;;;18.12;60.79;100040.80;1821224;77;22185;-49
2021/06/01 00:16:56;;;;;;;3.05;1.87;;;;;;;18.12;60.71;100037.69;1812201;77;22151;-48
2021/06/01 00:19:44;;;;;;;2.08;1.10;;;;;;;18.10;60.64;100042.23;1781749;80;21288;-48
2021/06/01 00:22:17;;;;;;;1.90;1.20;;;;;;;18.14;60.60;100041.59;1826086;77;22590;-48
2021/06/01 00:24:50;;;;;;;1.75;1.10;;;;;;;18.13;60.46;100044.75;1835141;77;22127;-48
2021/06/01 00:27:36;;;;;;;2.02;1.37;;;;;;;18.06;60.55;100045.98;1742859;81;21191;-50
2021/06/01 00:30:11;;;;;;;2.75;1.52;;;;;;;18.03;60.29;100038.14;1815569;77;22668;-49
2021/06/01 00:32:45;;;;;;;1.98;1.15;;;;;;;17.93;60.66;100043.48;1819852;77;22190;-48
2021/06/01 00:35:18;;;;;;;3.37;1.72;;;;;;;17.89;60.73;100049.43;1830684;77;22158;-48
2021/06/01 00:37:51;;;;;;;1.90;1.30;;;;;;;17.86;60.76;100046.91;1818427;77;22171;-48
2021/06/01 00:40:24;;;;;;;4.58;1.87;;;;;;;17.83;60.70;100039.95;1818648;77;22225;-48
2021/06/01 00:42:58;;;;;;;5.60;1.62;;;;;;;17.80;60.75;100041.42;1816141;77;22190;-48
2021/06/01 00:45:31;;;;;;;4.45;1.90;;;;;;;17.77;60.82;100041.58;1824061;77;22181;-48
2021/06/01 00:48:17;;;;;;;3.10;1.65;;;;;;;17.73;60.80;100043.10;1789073;78;21272;-49
2021/06/01 00:50:51;;;;;;;4.17;1.60;;;;;;;17.73;60.63;100039.11;1833991;77;22167;-48
2021/06/01 00:53:24;;;;;;;2.40;1.80;;;;;;;17.69;60.75;100037.92;1791905;77;22613;-47
2021/06/01 00:55:57;;;;;;;2.80;1.67;;;;;;;17.76;60.51;100041.63;1823202;77;22664;-48
2021/06/01 00:58:30;;;;;;;4.12;2.00;;;;;;;17.76;60.38;100033.64;1809380;77;22198;-48
2021/06/01 01:03:39;;;;;;;3.45;1.95;;;;;;;17.68;60.36;100037.53;1807840;77;22167;-48
2021/06/01 01:06:46;;;;;;;4.75;1.98;;;;;;;17.68;60.32;100038.02;1834792;77;22179;-48
2021/06/01 01:09:19;;;;;;;3.22;2.10;;;;;;;17.67;60.29;100038.95;1852163;77;22218;-48
2021/06/01 01:12:06;;;;;;;4.15;2.05;;;;;;;17.65;60.22;100032.83;1848854;77;22135;-50
2021/06/01 01:14:45;;;;;;;3.92;2.50;;;;;;;17.65;60.25;100031.05;1824539;77;22130;-47
2021/06/01 01:17:45;;;;;;;2.65;1.95;;;;;;;17.63;60.24;100037.36;1790784;80;21122;-48
2021/06/01 01:20:52;;;;;;;3.00;1.87;;;;;;;17.64;60.14;100035.09;1814689;77;22151;-48
2021/06/01 01:23:28;;;;;;;3.92;2.40;;;;;;;17.60;60.06;100031.73;1819480;77;22187;-48
2021/06/01 01:26:14;;;;;;;5.55;2.80;;;;;;;17.57;60.24;100034.53;1837261;77;27970;-47
2021/06/01 01:29:14;;;;;;;7.90;2.60;;;;;;;17.60;60.19;100036.17;1805065;77;22182;-48
2021/06/01 01:31:58;;;;;;;4.45;2.25;;;;;;;17.53;60.09;100032.95;1815414;77;22594;-49
2021/06/01 01:34:32;;;;;;;6.45;2.83;;;;;;;17.58;60.14;100038.04;1837769;77;22127;-49
2021/06/01 01:37:06;;;;;;;4.40;2.80;;;;;;;17.55;60.04;100036.41;1828129;77;22622;-48
2021/06/01 01:39:45;;;;;;;4.37;2.65;;;;;;;17.54;60.08;100034.67;1804745;77;22186;-49
2021/06/01 01:42:16;;;;;;;6.33;3.05;;;;;;;17.52;60.09;100035.22;1815502;77;22203;-48
2021/06/01 01:44:51;;;;;;;3.95;2.65;;;;;;;17.48;60.07;100035.80;1843120;77;22597;-48
2021/06/01 01:50:09;;;;;;;4.12;2.90;;;;;;;17.45;60.13;100035.95;1836337;77;22178;-48
2021/06/01 01:52:43;;;;;;;5.65;3.40;;;;;;;17.13;61.05;100028.98;1804611;77;28037;-48
2021/06/01 01:55:16;;;;;;;5.25;3.20;;;;;;;17.28;60.56;100033.22;1816075;77;22186;-50
2021/06/01 01:57:49;;;;;;;3.92;2.72;;;;;;;17.29;60.48;100029.15;1812457;77;22174;-48
2021/06/01 02:00:36;;;;;;;7.33;3.02;;;;;;;17.23;60.44;100034.30;1737499;81;21126;-50
2021/06/01 02:03:09;;;;;;;4.95;2.80;;;;;;;17.22;60.51;100033.89;1814072;77;22182;-50
2021/06/01 02:05:44;;;;;;;5.67;3.08;;;;;;;17.22;60.50;100035.22;1829989;77;22127;-49
2021/06/01 02:08:17;;;;;;;5.72;2.98;;;;;;;17.20;60.49;100029.59;1812344;77;22178;-49
2021/06/01 02:10:51;;;;;;;4.85;3.12;;;;;;;17.15;60.56;100027.13;1834759;77;22204;-49
2021/06/01 02:13:28;;;;;;;7.00;3.00;;;;;;;17.14;60.55;100037.84;1826666;77;22186;-50
2021/06/01 02:16:02;;;;;;;4.75;3.00;;;;;;;17.10;60.59;100030.45;1820621;77;22217;-51
2021/06/01 02:18:35;;;;;;;6.78;2.80;;;;;;;17.06;60.55;100025.75;1807916;77;22162;-49
2021/06/01 02:21:33;;;;;;;8.85;3.55;;;;;;;17.03;60.52;100027.22;1820113;77;22581;-49
2021/06/01 02:24:00;;;;;;;7.72;3.37;;;;;;;17.03;60.63;100031.20;1814862;77;22171;-49
2021/06/01 02:27:21;;;;;;;5.03;2.75;;;;;;;16.98;60.63;100037.19;1793281;80;21142;-49
2021/06/01 02:30:08;;;;;;;5.65;3.20;;;;;;;16.94;60.64;100036.45;1818183;77;22135;-49
2021/06/01 02:32:53;;;;;;;5.95;3.10;;;;;;;16.91;60.63;100037.02;1819955;77;22206;-50
2021/06/01 02:35:30;;;;;;;6.28;3.37;;;;;;;16.91;60.68;100038.36;1834036;77;22156;-50
2021/06/01 02:38:07;;;;;;;6.47;3.40;;;;;;;16.90;60.65;100035.30;1815560;77;22190;-49
2021/06/01 02:40:41;;;;;;;5.28;3.62;;;;;;;16.89;60.59;100030.47;1821274;77;22153;-49
2021/06/01 02:43:15;;;;;;;4.47;3.45;;;;;;;16.84;60.55;100028.47;1804586;77;22197;-49
2021/06/01 02:45:48;;;;;;;4.95;3.75;;;;;;;16.81;60.62;100028.60;1853248;77;22175;-50
2021/06/01 02:48:22;;;;;;;7.08;4.22;;;;;;;16.75;60.60;100027.54;1811159;77;22194;-49
2021/06/01 02:50:57;;;;;;;5.30;4.05;;;;;;;16.73;60.65;100028.07;1826087;77;22120;-49
2021/06/01 02:53:31;;;;;;;6.80;5.45;;;;;;;16.67;60.65;100019.91;1793876;77;28058;-48
2021/06/01 02:56:05;;;;;;;5.92;3.90;;;;;;;16.68;60.70;100028.73;1825693;77;22163;-49
2021/06/01 02:58:42;;;;;;;5.12;4.17;;;;;;;16.68;60.58;100019.43;1807237;77;22602;-48
2021/06/01 03:01:20;;;;;;;4.90;3.87;;;;;;;16.65;60.57;100024.42;1818054;77;22158;-49
2021/06/01 03:03:54;;;;;;;5.67;4.10;;;;;;;16.61;60.76;100021.02;1801497;77;22206;-49
2021/06/01 03:06:28;;;;;;;9.50;4.47;;;;;;;16.59;60.79;100026.02;1818639;77;22242;-48
2021/06/01 03:09:02;;;;;;;6.80;4.17;;;;;;;16.58;60.91;100025.14;1809184;77;22581;-49
2021/06/01 03:11:36;;;;;;;8.43;4.37;;;;;;;16.57;60.91;100028.72;1832657;77;22198;-48
2021/06/01 03:14:10;;;;;;;6.17;4.10;;;;;;;16.57;61.02;100027.88;1816481;77;22190;-49
2021/06/01 03:16:43;;;;;;;5.95;4.60;;;;;;;16.56;61.05;100023.01;1819604;77;22140;-49
2021/06/01 03:19:29;;;;;;;5.40;4.45;;;;;;;16.51;61.02;100027.69;1741862;81;21115;-50
2021/06/01 03:22:04;;;;;;;7.28;4.22;;;;;;;16.52;61.05;100021.44;1814726;77;22221;-49
2021/06/01 03:24:37;;;;;;;6.15;4.37;;;;;;;16.52;61.19;100029.41;1818910;77;22585;-49
2021/06/01 03:27:10;;;;;;;5.10;4.08;;;;;;;16.53;61.18;100019.19;1814181;77;22167;-49
2021/06/01 03:29:43;;;;;;;6.83;4.35;;;;;;;16.56;61.04;100016.84;1798495;77;22182;-49
2021/06/01 03:32:17;;;;;;;6.85;4.20;;;;;;;16.56;61.06;100019.50;1809367;77;22645;-49
2021/06/01 03:34:50;;;;;;;4.90;4.40;;;;;;;16.54;61.15;100021.36;1843326;77;22134;-48
2021/06/01 03:37:23;;;;;;;6.83;4.30;;;;;;;16.48;61.32;100027.81;1824594;77;22222;-48
2021/06/01 03:39:57;;;;;;;5.22;3.75;;;;;;;16.46;61.37;100029.67;1852183;77;22170;-49
2021/06/01 03:42:30;;;;;;;6.50;4.45;;;;;;;16.42;61.54;100034.23;1823096;77;22638;-48
2021/06/01 03:45:05;;;;;;;7.20;3.80;;;;;;;16.43;61.60;100033.78;1820353;77;22180;-48
2021/06/01 03:47:40;;;;;;;7.10;4.30;;;;;;;16.43;61.56;100033.30;1821151;77;22683;-49
2021/06/01 03:50:15;;;;;;;6.25;5.30;;;;;;;16.44;61.53;100032.38;1819113;77;27960;-49
2021/06/01 03:52:48;;;;;;;6.15;4.53;;;;;;;16.44;61.36;100040.82;1818449;77;22190;-48
2021/06/01 03:55:21;;;;;;;5.33;4.58;;;;;;;16.42;61.46;100026.74;1828301;77;22163;-50
2021/06/01 03:57:55;;;;;;;7.47;4.28;;;;;;;16.47;61.34;100035.38;1801940;77;22626;-48
2021/06/01 04:00:29;;;;;;;5.35;4.47;;;;;;;16.44;61.48;100034.18;1834738;77;22184;-49
2021/06/01 04:03:03;;;;;;;6.47;4.53;;;;;;;16.46;61.45;100031.00;1801522;77;22182;-49
2021/06/01 04:05:36;;;;;;;6.17;4.80;;;;;;;16.45;61.27;100028.79;1815018;78;22198;-48
2021/06/01 04:08:09;;;;;;;6.75;5.00;;;;;;;16.39;61.35;100024.21;1814265;77;22191;-49
2021/06/01 04:10:42;;;;;;;7.55;5.10;;;;;;;16.34;61.47;100027.04;1805533;77;22206;-48
2021/06/01 04:13:16;;;;;;;8.78;4.50;;;;;;;16.38;61.32;100030.45;1812825;77;22190;-48
2021/06/01 04:15:49;;;;;;;7.15;4.70;;;;;;;16.34;61.05;100037.66;1834747;77;22179;-48
2021/06/01 04:18:23;;;;;;;6.60;5.08;;;;;;;16.29;61.27;100037.87;1810690;77;22190;-48
2021/06/01 04:20:56;;;;;;;6.05;4.95;;;;;;;16.27;61.22;100029.09;1834750;77;22183;-48
2021/06/01 04:23:30;;;;;;;6.80;4.78;;;;;;;16.27;61.15;100033.08;1786441;77;22199;-47
2021/06/01 04:26:03;;;;;;;7.00;5.70;;;;;;;16.31;60.97;100034.69;1832120;77;22163;-48
2021/06/01 04:28:39;;;;;;;6.28;4.97;;;;;;;16.26;61.13;100038.47;1804816;77;22198;-48
2021/06/01 04:31:12;;;;;;;6.30;5.67;;;;;;;16.22;61.23;100044.84;1828600;77;22167;-47
2021/06/01 04:33:45;;;;;;;10.08;5.53;;;;;;;16.21;61.26;100038.64;1805321;77;22778;-47
2021/06/01 04:36:31;;;;;;;6.80;5.80;;;;;;;16.16;61.23;100042.83;1756414;81;21140;-48
2021/06/01 04:39:06;;;;;;;6.92;5.95;;;;;;;16.18;61.29;100040.98;1903209;74;22130;-48
2021/06/01 04:41:42;;;;;;;8.20;5.78;;;;;;;16.19;61.40;100043.15;1831277;77;22180;-47
2021/06/01 04:44:16;;;;;;;6.45;5.78;;;;;;;16.27;61.29;100034.89;1819043;77;22152;-47
2021/06/01 04:46:50;;;;;;;8.48;6.80;;;;;;;16.22;61.23;100044.36;1826653;77;22185;-59
2021/06/01 04:49:29;;;;;;;8.68;5.90;;;;;;;16.23;61.29;100041.25;1818817;77;22200;-58
2021/06/01 04:52:08;;;;;;;6.10;5.45;;;;;;;16.24;61.25;100038.52;1847388;77;22182;-60
2021/06/01 04:54:42;;;;;;;7.25;5.83;;;;;;;16.26;61.31;100034.48;1821491;77;22140;-59
2021/06/01 04:57:16;;;;;;;6.30;5.67;;;;;;;16.30;61.18;100033.44;1826506;77;22167;-59
2021/06/01 04:59:53;;;;;;;7.67;6.22;;;;;;;16.33;61.20;100031.98;1829402;77;22159;-57
2021/06/01 05:02:28;;;;;;;7.55;6.40;;;;;;;16.34;61.05;100037.66;1826832;77;22185;-60
2021/06/01 05:05:04;;;;;;;8.10;6.08;;;;;;;16.35;61.32;100039.39;1823934;77;20223;-48
2021/06/01 05:07:37;;;;;;;6.08;5.47;;;;;;;16.39;61.22;100039.66;1839633;77;22205;-48
2021/06/01 05:10:11;;;;;;;6.70;5.87;;;;;;;16.42;61.23;100044.00;1804237;77;22186;-48
2021/06/01 05:12:44;;;;;;;6.55;5.85;;;;;;;16.44;61.06;100036.36;1815516;77;22158;-48
2021/06/01 05:15:18;;;;;;;6.75;5.85;;;;;;;16.47;61.12;100037.56;1819965;77;22167;-59
2021/06/01 05:17:52;;;;;;;6.67;5.70;;;;;;;16.50;60.98;100039.23;1818248;77;22190;-59
2021/06/01 05:20:47;;;;;;;8.10;5.85;;;;;;;16.53;60.98;100040.89;1840132;77;22214;-61
2021/06/01 05:23:24;;;;;;;9.25;6.33;;;;;;;16.56;60.87;100034.11;1796251;77;22279;-48
2021/06/01 05:26:14;;;;;;;6.17;5.53;;;;;;;16.56;60.93;100034.97;1753403;81;21590;-48
2021/06/01 05:28:47;;;;;;;7.37;6.35;;;;;;;16.65;60.92;100038.56;1792620;77;22194;-47
2021/06/01 05:31:43;;;;;;;6.90;6.10;;;;;;;16.70;61.06;100031.73;1818787;77;22137;-48
2021/06/01 05:34:07;;;;;;;10.78;6.78;;;;;;;16.77;60.74;100036.31;1816946;77;22139;-47
2021/06/01 05:36:41;;;;;;;7.60;6.65;;;;;;;16.82;60.82;100036.98;1834302;77;22232;-47
2021/06/01 05:39:14;;;;;;;10.08;6.45;;;;;;;16.86;60.58;100036.36;1834647;77;22202;-48
2021/06/01 05:41:48;;;;;;;9.03;6.08;;;;;;;16.91;60.89;100035.25;1821126;77;22161;-46
2021/06/01 05:44:21;;;;;;;8.50;6.30;;;;;;;16.94;60.57;100035.11;1833727;77;22594;-47
2021/06/01 05:46:55;;;;;;;9.03;6.78;;;;;;;16.93;60.18;100040.03;1816769;77;22556;-47
2021/06/01 05:49:31;;;;;;;10.08;6.08;;;;;;;16.96;60.04;100035.06;1840215;77;22555;-47
2021/06/01 05:52:10;;;;;;;7.80;5.72;;;;;;;16.99;59.84;100032.75;1811157;77;22216;-60
2021/06/01 05:54:48;;;;;;;6.58;5.87;;;;;;;17.00;59.68;100039.80;1814181;77;22183;-56
2021/06/01 05:57:21;;;;;;;6.50;5.17;;;;;;;16.99;59.70;100040.73;1824951;77;22214;-47
2021/06/01 05:59:55;;;;;;;10.03;5.75;;;;;;;16.98;59.81;100040.33;1810090;77;22124;-47
2021/06/01 06:02:33;;;;;;;7.17;6.03;;;;;;;16.95;59.67;100039.95;1807267;77;22198;-48
2021/06/01 06:05:19;;;;;;;;;;;;;;;16.91;59.56;100046.33;1754914;81;21084;-60
2021/06/01 06:07:52;;;;;;;5.30;4.80;;;;;;;16.96;59.79;100040.37;1834386;77;22185;-59
2021/06/01 06:10:26;;;;;;;6.12;5.17;;;;;;;16.97;59.81;100042.11;1830803;77;22162;-58
2021/06/01 06:13:00;;;;;;;6.50;5.55;;;;;;;16.97;59.73;100044.77;1797665;77;22206;-59
2021/06/01 06:15:37;;;;;;;6.78;5.47;;;;;;;16.97;59.70;100042.11;1834766;77;22204;-47
2021/06/01 06:18:44;;;;;;;8.18;5.75;;;;;;;16.98;59.86;100039.84;1788976;77;22204;-47
2021/06/01 06:21:18;;;;;;;7.75;5.53;;;;;;;16.99;59.60;100044.23;1816897;77;22170;-48
2021/06/01 06:24:19;;;;;;;7.58;6.25;;;;;;;16.99;59.81;100043.39;1893506;74;22172;-49
2021/06/01 06:26:59;;;;;;;5.95;5.30;;;;;;;17.01;59.76;100050.34;1820949;77;22138;-47
2021/06/01 06:29:41;;;;;;;6.95;5.12;;;;;;;16.93;59.84;100049.34;1848506;77;22156;-48
2021/06/01 06:32:14;;;;;;;6.47;5.78;;;;;;;16.91;59.81;100051.20;1826584;77;22174;-59
2021/06/01 06:34:49;;;;;;;6.05;5.28;;;;;;;16.88;59.87;100053.11;1844629;77;22154;-59
2021/06/01 06:37:24;;;;;;;6.70;5.50;;;;;;;16.85;59.84;100049.25;1815578;77;22178;-59
2021/06/01 06:39:57;;;;;;;9.90;6.20;;;;;;;16.83;59.85;100051.99;1817460;77;22194;-54
2021/06/01 06:42:36;;;;;;;8.43;6.17;;;;;;;16.77;59.86;100054.91;1816854;77;22172;-59
2021/06/01 06:45:11;;;;;;;7.62;5.62;;;;;;;16.72;59.98;100057.78;1819924;77;22146;-59
2021/06/01 06:50:23;;;;;;;7.15;6.08;;;;;;;16.65;60.16;100058.48;1830039;77;22219;-58
2021/06/01 06:52:59;;;;;;;11.00;7.50;;;;;;;16.61;60.27;100058.22;1798470;77;28064;-60
2021/06/01 06:55:36;;;;;;;8.45;6.28;;;;;;;16.60;60.67;100062.28;1807833;77;22163;-59
2021/06/01 06:58:09;;;;;;;6.80;5.80;;;;;;;16.61;60.78;100056.89;1811389;77;22190;-60
2021/06/01 07:00:43;;;;;;;8.68;5.97;;;;;;;16.62;61.04;100065.26;1843547;77;22167;-50
2021/06/01 07:03:16;;;;;;;7.05;6.30;;;;;;;16.64;61.10;100063.41;1802127;77;22241;-49
2021/06/01 07:05:49;;;;;;;7.85;6.47;;;;;;;16.67;61.19;100062.42;1833949;77;22603;-50
2021/06/01 07:08:24;;;;;;;9.33;6.22;;;;;;;16.68;61.35;100067.26;1788287;77;22231;-51
2021/06/01 07:10:58;;;;;;;8.70;6.30;;;;;;;16.71;61.46;100068.45;1810021;77;22602;-50
2021/06/01 07:16:20;;;;;;;9.85;6.53;;;;;;;16.69;61.86;100055.25;1816376;77;22162;-51
2021/06/01 07:18:53;;;;;;;11.68;6.55;;;;;;;16.75;62.09;100059.43;1791898;77;22192;-50
2021/06/01 07:21:29;;;;;;;9.05;8.08;;;;;;;16.80;62.23;100060.95;1801832;77;38752;-50
2021/06/01 07:24:05;;;;;;;8.78;6.97;;;;;;;16.89;62.16;100053.06;1814609;77;22213;-50
2021/06/01 07:26:39;;;;;;;7.35;6.22;;;;;;;17.01;62.14;100051.67;1798007;77;22179;-51
2021/06/01 07:29:12;;;;;;;7.40;6.42;;;;;;;17.09;62.30;100052.20;1830997;77;22124;-49
2021/06/01 07:31:49;;;;;;;7.92;6.85;;;;;;;17.16;62.31;100061.24;1817734;78;22225;-50
2021/06/01 07:34:22;;;;;;;8.40;7.60;;;;;;;17.24;62.61;100059.95;1819039;77;28345;-50
2021/06/01 07:36:56;;;;;;;7.80;6.60;;;;;;;17.45;62.41;100061.22;1831487;77;22165;-50
2021/06/01 07:39:46;;;;;;;6.47;5.80;;;;;;;17.55;62.09;100065.67;1788708;80;21162;-50
2021/06/01 07:42:25;;;;;;;6.90;6.20;;;;;;;17.61;61.72;100057.86;1824427;77;22205;-50
2021/06/01 07:44:59;;;;;;;8.70;7.70;;;;;;;17.62;61.58;100060.47;1825572;77;28415;-50
2021/06/01 07:47:34;;;;;;;7.67;6.40;;;;;;;17.66;61.66;100062.02;1815291;77;22245;-50
2021/06/01 07:50:12;;;;;;;10.30;6.92;;;;;;;17.73;61.50;100065.27;1819820;77;22199;-49
2021/06/01 07:53:00;;;;;;;7.20;5.55;;;;;;;17.73;61.46;100073.27;1771738;80;21911;-49
2021/06/01 07:55:41;;;;;;;7.40;6.33;;;;;;;17.78;61.47;100066.38;1822722;77;22215;-49
2021/06/01 07:58:18;;;;;;;9.78;5.97;;;;;;;17.73;61.63;100070.59;1799711;77;22197;-50
2021/06/01 08:01:06;;;;;;;6.33;5.72;;;;;;;17.65;61.65;100068.30;1755838;82;21127;-50
2021/06/01 08:03:42;;;;;;;7.15;5.75;;;;;;;17.73;61.60;100072.38;1799377;77;22237;-50
2021/06/01 08:06:17;;;;;;;6.30;5.70;;;;;;;17.69;61.66;100065.87;1820865;77;22167;-50
2021/06/01 08:08:51;;;;;;;6.00;5.25;;;;;;;17.68;61.43;100074.78;1822317;77;22193;-49
2021/06/01 08:11:25;;;;;;;6.28;5.50;;;;;;;17.68;61.48;100068.62;1834736;77;22179;-50
2021/06/01 08:13:58;;;;;;;7.85;5.35;;;;;;;17.73;61.38;100072.38;1815352;77;22174;-50
2021/06/01 08:16:33;;;;;;;6.47;5.87;;;;;;;17.76;60.91;100075.78;1832759;77;22183;-50
2021/06/01 08:21:56;;;;;;;5.92;5.15;;;;;;;17.75;60.73;100073.17;1827782;77;22579;-49
2021/06/01 08:24:26;;;;;;;9.33;7.00;;;;;;;17.72;60.73;100079.52;1817660;77;28067;-49
2021/06/01 08:27:16;;;;;;;6.60;6.00;;;;;;;17.68;60.79;100081.92;1790951;80;21154;-50
2021/06/01 08:29:49;;;;;;;6.90;5.53;;;;;;;17.73;60.93;100078.58;1830243;78;22185;-49
2021/06/01 08:32:24;;;;;;;6.42;5.75;;;;;;;17.73;60.96;100080.36;1806832;77;22218;-48
2021/06/01 08:34:59;;;;;;;7.10;6.12;;;;;;;17.75;61.00;100082.48;1827535;77;22613;-48
2021/06/01 08:37:34;;;;;;;6.25;5.65;;;;;;;17.76;60.95;100082.88;1811236;77;22174;-49
2021/06/01 08:40:09;;;;;;;7.83;5.83;;;;;;;17.76;60.89;100083.77;1833895;77;22171;-49
2021/06/01 08:42:44;;;;;;;6.65;5.58;;;;;;;17.73;60.91;100077.70;1812584;77;22194;-49
2021/06/01 08:45:18;;;;;;;7.03;5.78;;;;;;;17.71;60.72;100082.23;1834652;77;22191;-49
2021/06/01 08:47:51;;;;;;;6.58;5.30;;;;;;;17.66;60.70;100090.44;1817368;77;22186;-50
2021/06/01 08:50:26;;;;;;;5.97;5.17;;;;;;;17.66;60.61;100089.96;1831005;77;22167;-48
2021/06/01 08:53:01;;;;;;;6.20;5.60;;;;;;;17.65;60.82;100084.73;1816467;77;22202;-50
2021/06/01 08:55:37;;;;;;;8.33;6.95;;;;;;;17.66;60.93;100086.45;1818999;77;28017;-49
2021/06/01 08:58:17;;;;;;;7.37;5.72;;;;;;;17.71;60.86;100090.22;1800841;77;22199;-48
2021/06/01 09:00:51;;;;;;;5.97;5.42;;;;;;;17.76;60.89;100086.42;1834650;77;22152;-49
2021/06/01 09:03:26;;;;;;;6.35;5.65;;;;;;;17.78;61.06;100083.67;1810787;77;22178;-49
2021/06/01 09:12:26;;;;;;;8.30;6.85;;;;;;;17.92;61.16;100081.23;1827819;77;28108;-49
2021/06/01 09:23:18;;;;;;;6.95;5.90;;;;;;;18.20;60.73;100071.92;1812424;77;22242;-49
2021/06/01 09:25:59;;;;;;;7.17;5.83;;;;;;;18.21;60.46;100073.66;1834606;77;22211;-49
2021/06/01 09:28:28;;;;;;;7.20;6.50;;;;;;;18.20;59.93;100075.08;1791674;77;28116;-48
2021/06/01 09:31:02;;;;;;;6.15;5.45;;;;;;;18.15;60.30;100071.77;1834587;77;22533;-49
2021/06/01 09:33:52;;;;;;;6.58;5.53;;;;;;;18.06;60.34;100075.27;1728114;82;21150;-49
2021/06/01 09:36:25;;;;;;;7.22;6.53;;;;;;;18.07;60.23;100071.67;1817272;77;28043;-49
2021/06/01 09:39:23;;;;;;;8.23;6.30;;;;;;;18.10;60.09;100058.20;1840914;77;22239;-48
2021/06/01 09:41:57;;;;;;;7.97;5.78;;;;;;;18.15;60.29;100067.30;1830615;77;22164;-48
2021/06/01 09:44:31;;;;;;;6.08;5.47;;;;;;;18.30;60.28;100065.70;1834751;77;22619;-48
2021/06/01 09:47:05;;;;;;;5.78;5.17;;;;;;;18.27;60.22;100052.53;1826432;77;22213;-50
2021/06/01 09:49:38;;;;;;;6.90;5.20;;;;;;;18.33;60.03;100054.02;1852954;77;22179;-49
2021/06/01 09:52:14;;;;;;;6.78;6.17;;;;;;;18.51;59.89;100065.55;1827224;77;22182;-48
2021/06/01 09:54:57;;;;;;;7.67;6.87;;;;;;;18.56;59.69;100064.36;1837180;77;28442;-49
2021/06/01 09:57:27;;;;;;;6.60;6.00;;;;;;;18.56;59.71;100063.03;1833385;77;22205;-48
2021/06/01 10:00:22;;;;;;;6.37;5.78;;;;;;;18.54;59.51;100070.27;1761253;81;21127;-47
2021/06/01 10:03:02;;;;;;;7.92;6.35;;;;;;;18.58;59.46;100066.97;1791296;77;22222;-48
2021/06/01 10:05:38;;;;;;;7.17;5.85;;;;;;;18.59;59.57;100064.70;1848265;77;22167;-49
2021/06/01 10:08:15;;;;;;;6.40;5.50;;;;;;;18.65;59.35;100076.84;1813804;77;22645;-47
2021/06/01 10:10:53;;;;;;;7.70;5.42;;;;;;;18.65;59.08;100074.17;1834017;77;22116;-48
2021/06/01 10:13:31;;;;;;;7.12;4.75;;;;;;;18.63;58.94;100080.05;1798322;77;22223;-47
2021/06/01 10:16:11;;;;;;;7.40;5.55;;;;;;;18.66;58.12;100075.90;1833816;77;22128;-48
2021/06/01 10:18:59;;;;;;;9.23;4.80;;;;;;;18.52;57.88;100080.59;1761133;80;21611;-48
2021/06/01 10:21:40;;;;;;;7.78;6.25;;;;;;;18.45;58.09;100077.39;1795709;77;28037;-60
2021/06/01 10:24:17;;;;;;;6.10;5.50;;;;;;;18.47;58.38;100074.63;1825095;77;22148;-61
2021/06/01 10:26:57;;;;;;;8.85;5.20;;;;;;;18.49;58.40;100075.42;1822686;77;22197;-61
2021/06/01 10:29:27;;;;;;;7.30;6.60;;;;;;;18.40;58.44;100072.76;1806774;77;28032;-59
2021/06/01 10:32:01;;;;;;;6.70;6.00;;;;;;;18.40;58.99;100072.76;1829729;77;22190;-61
2021/06/01 10:34:40;;;;;;;6.72;5.90;;;;;;;18.43;58.97;100069.94;1828168;77;22139;-61
2021/06/01 10:49:56;;;;;;;6.70;5.62;;;;;;;18.79;59.82;100057.46;1803838;77;22194;-59
2021/06/01 10:52:05;;;;;;;6.12;5.53;;;;;;;18.87;59.58;100057.93;1804293;77;22201;-60
2021/06/01 10:54:47;;;;;;;7.33;5.80;;;;;;;18.91;59.48;100051.50;1834572;77;22204;-59
2021/06/01 10:57:21;;;;;;;7.37;5.78;;;;;;;18.96;59.53;100049.97;1802690;77;22207;-60
2021/06/01 11:03:05;;;;;;;6.17;5.58;;;;;;;19.00;59.40;100050.17;1810424;78;21179;-61
2021/06/01 11:06:00;;;;;;;6.87;5.05;;;;;;;19.10;58.96;100048.75;1833934;77;22555;-59
2021/06/01 11:08:43;;;;;;;5.42;4.90;;;;;;;19.16;58.87;100044.42;1826236;77;20118;-60
2021/06/01 11:11:34;;;;;;;6.05;3.72;;;;;;;19.22;58.56;100047.23;1853098;77;22567;-59
2021/06/01 11:14:32;;;;;;;5.35;4.25;;;;;;;19.30;58.12;100049.50;1825424;77;22192;-62
2021/06/01 11:17:10;;;;;;;7.95;4.37;;;;;;;19.37;57.26;100041.55;1822254;77;22198;-60
2021/06/01 11:20:10;;;;;;;6.40;5.30;;;;;;;19.47;57.58;100046.76;1834663;77;22152;-60
2021/06/01 11:33:54;;;;;;;5.30;3.33;;;;;;;19.73;55.56;100042.25;1799517;77;22615;-61
2021/06/01 11:36:38;;;;;;;5.08;3.92;;;;;;;19.73;55.91;100040.92;1827357;77;22186;-59
2021/06/01 11:39:31;;;;;;;4.85;3.00;;;;;;;19.76;56.05;100042.97;1834717;77;22136;-61
2021/06/01 11:44:42;;;;;;;6.25;3.42;;;;;;;19.62;55.87;100042.86;1832813;77;22167;-61
2021/06/01 11:47:27;;;;;;;5.65;3.40;;;;;;;19.50;55.37;100047.53;1826457;77;22170;-59
2021/06/01 11:52:58;;;;;;;6.22;4.67;;;;;;;19.25;56.33;100048.39;1813366;77;22183;-58
2021/06/01 11:55:47;;;;;;;5.35;4.40;;;;;;;19.15;56.17;100050.70;1762222;81;22036;-61
2021/06/01 12:04:13;;;;;;;5.15;4.35;;;;;;;18.87;56.30;100053.48;1834731;77;22143;-59
2021/06/01 12:21:08;;;;;;;4.83;4.33;;;;;;;18.69;56.80;100065.08;1828376;77;22122;-58
2021/06/01 12:23:57;;;;;;;6.05;4.75;;;;;;;18.64;57.04;100068.45;1824378;77;22170;-59
2021/06/01 12:32:28;;;;;;;4.87;4.37;;;;;;;18.57;56.92;100081.23;1824665;77;22203;-59
2021/06/01 12:43:48;;;;;;;4.75;3.90;;;;;;;18.47;57.25;100089.29;1808586;77;22198;-60
2021/06/01 13:19:19;;;;;;;7.22;6.28;;;;;;;18.12;59.25;100102.06;1810200;77;22652;-60
2021/06/01 13:20:39;;;;;;;6.15;5.47;;;;;;;18.11;59.25;100101.67;1834767;77;22121;-60
2021/06/01 13:38:13;;;;;;;7.80;5.72;;;;;;;17.95;59.72;100100.18;1815813;77;22230;-60
2021/06/01 13:46:30;;;;;;;7.47;5.20;;;;;;;17.91;59.30;100094.15;1828478;77;22112;-60
2021/06/01 13:49:20;;;;;;;5.28;4.30;;;;;;;17.79;59.25;100100.05;1834651;77;22204;-59
2021/06/01 13:52:04;;;;;;;5.53;4.25;;;;;;;17.70;59.50;100102.68;1831278;77;22559;-61
2021/06/01 13:57:56;;;;;;;4.62;3.95;;;;;;;17.54;59.57;100111.36;1822090;77;22626;-60
2021/06/01 15:07:35;;;;;;;3.50;2.33;;;;;;;16.68;62.06;100147.86;1827306;77;20118;-51
2021/06/01 15:41:13;;;;;;;7.17;4.35;;;;;;;16.16;62.61;100157.00;1816293;77;22194;-51
2021/06/01 16:13:10;;;;;;;6.72;5.03;;;;;;;15.77;63.66;100162.87;1816921;77;22175;-62
2021/06/01 17:11:44;;;;;;;7.90;6.42;;;;;;;15.45;64.46;100164.94;1824001;77;22128;-63
2021/06/01 17:14:17;;;;;;;8.05;6.37;;;;;;;15.49;64.48;100165.67;1824472;77;22156;-62
2021/06/01 17:16:55;;;;;;;11.00;6.45;;;;;;;15.48;64.43;100164.80;1817545;77;22210;-63
2021/06/01 17:22:49;;;;;;;11.25;8.60;;;;;;;15.55;63.98;100161.48;1825259;77;28548;-63
2021/06/01 17:36:39;;;;;;;7.05;6.35;;;;;;;15.56;63.88;100168.04;1834553;77;22136;-65
2021/06/01 17:39:26;;;;;;;10.25;7.47;;;;;;;15.50;63.84;100179.34;1745672;81;21126;-65
2021/06/01 17:42:00;;;;;;;8.58;7.22;;;;;;;15.42;64.13;100182.28;1829692;77;22253;-64
2021/06/01 17:44:34;;;;;;;9.48;6.97;;;;;;;15.33;64.08;100178.63;1814445;77;22163;-65
2021/06/01 17:47:27;;;;;;;21.52;7.37;;;;;;;15.31;64.25;100186.17;1828801;77;22286;-66
2021/06/01 17:50:02;;;;;;;8.40;7.60;;;;;;;15.18;64.71;100181.36;1834762;77;22164;-64
2021/06/01 17:52:36;;;;;;;9.75;7.47;;;;;;;15.20;64.65;100187.00;1800559;77;22239;-65
2021/06/01 17:55:15;;;;;;;8.38;7.30;;;;;;;15.20;64.57;100188.80;1834760;77;22619;-64
2021/06/01 17:57:48;;;;;;;9.03;7.62;;;;;;;15.27;64.49;100187.64;1837551;77;22194;-64
2021/06/01 18:00:22;;;;;;;8.88;7.35;;;;;;;15.25;64.44;100185.05;1834746;77;22191;-64